createdAt,value
2017-12-20T00:00:11.116Z,0
2017-12-20T00:01:11.725Z,0
2017-12-20T00:02:12.331Z,0
2017-12-20T00:03:12.921Z,0
2017-12-20T00:04:13.529Z,0
2017-12-20T00:05:14.134Z,0
2017-12-20T00:06:14.737Z,0
2017-12-20T00:07:15.334Z,0
2017-12-20T00:08:15.931Z,0
2017-12-20T00:09:16.546Z,0
2017-12-20T00:10:17.116Z,0
2017-12-20T00:11:17.722Z,0
2017-12-20T00:12:18.316Z,0
2017-12-20T00:13:18.908Z,0
2017-12-20T00:14:19.506Z,0
2017-12-20T00:15:20.112Z,0
2017-12-20T00:16:20.712Z,0
2017-12-20T00:17:21.316Z,0
2017-12-20T00:18:21.925Z,0
2017-12-20T00:19:22.511Z,0
2017-12-20T00:20:23.111Z,0
2017-12-20T00:21:23.727Z,0
2017-12-20T00:22:24.323Z,0
2017-12-20T00:23:24.927Z,0
2017-12-20T00:24:25.518Z,0
2017-12-20T00:25:26.112Z,0
2017-12-20T00:26:26.697Z,0
2017-12-20T00:27:27.294Z,0
2017-12-20T00:28:27.897Z,0
2017-12-20T00:29:28.494Z,0
2017-12-20T00:30:29.090Z,0
2017-12-20T00:31:29.690Z,0
2017-12-20T00:32:30.299Z,0
2017-12-20T00:33:30.911Z,0
2017-12-20T00:34:31.519Z,0
2017-12-20T00:35:32.133Z,0
2017-12-20T00:36:32.730Z,0
2017-12-20T00:37:33.343Z,0
2017-12-20T00:38:33.946Z,0
2017-12-20T00:39:34.551Z,0
2017-12-20T00:40:35.164Z,0
2017-12-20T00:41:35.761Z,0
2017-12-20T00:42:36.372Z,0
2017-12-20T00:43:36.988Z,0
2017-12-20T00:44:37.553Z,0
2017-12-20T00:45:38.151Z,0
2017-12-20T00:46:38.734Z,0
2017-12-20T00:47:39.324Z,0
2017-12-20T00:48:39.916Z,0
2017-12-20T00:49:40.518Z,0
2017-12-20T00:50:41.119Z,0
2017-12-20T00:51:41.716Z,0
2017-12-20T00:52:42.321Z,0
2017-12-20T00:53:42.936Z,0
2017-12-20T00:54:43.539Z,0
2017-12-20T00:55:44.138Z,0
2017-12-20T00:56:44.754Z,0
2017-12-20T00:57:45.343Z,0
2017-12-20T00:58:45.944Z,0
2017-12-20T00:59:46.551Z,0
2017-12-20T01:01:31.369Z,0
2017-12-20T01:02:31.972Z,0
2017-12-20T01:03:32.579Z,0
2017-12-20T01:04:33.182Z,0
2017-12-20T01:05:33.792Z,0
2017-12-20T01:06:34.390Z,0
2017-12-20T01:07:35.016Z,0
2017-12-20T01:08:35.619Z,0
2017-12-20T01:09:36.223Z,0
2017-12-20T01:10:36.828Z,0
2017-12-20T01:11:37.431Z,0
2017-12-20T01:12:38.035Z,0
2017-12-20T01:13:38.639Z,0
2017-12-20T01:14:39.245Z,0
2017-12-20T01:15:39.851Z,0
2017-12-20T01:16:40.457Z,0
2017-12-20T01:17:41.062Z,0
2017-12-20T01:18:41.665Z,0
2017-12-20T01:19:42.269Z,0
2017-12-20T01:20:42.872Z,0
2017-12-20T01:21:43.477Z,0
2017-12-20T01:22:44.082Z,0
2017-12-20T01:23:44.694Z,0
2017-12-20T01:24:45.308Z,0
2017-12-20T01:25:45.934Z,0
2017-12-20T01:26:46.540Z,0
2017-12-20T01:27:47.145Z,0
2017-12-20T01:28:47.756Z,0
2017-12-20T01:29:48.373Z,0
2017-12-20T01:30:48.978Z,0
2017-12-20T01:31:49.585Z,0
2017-12-20T01:32:50.198Z,0
2017-12-20T01:33:50.797Z,0
2017-12-20T01:34:51.400Z,0
2017-12-20T01:35:52.004Z,0
2017-12-20T01:36:52.607Z,0
2017-12-20T01:37:53.210Z,0
2017-12-20T01:38:53.836Z,0
2017-12-20T01:39:54.440Z,0
2017-12-20T01:40:55.043Z,0
2017-12-20T01:41:55.645Z,0
2017-12-20T01:42:56.250Z,0
2017-12-20T01:43:56.854Z,0
2017-12-20T01:44:57.460Z,0
2017-12-20T01:45:58.064Z,0
2017-12-20T01:46:58.668Z,0
2017-12-20T01:47:59.283Z,0
2017-12-20T01:48:59.924Z,0
2017-12-20T01:50:00.528Z,0
2017-12-20T01:51:01.135Z,0
2017-12-20T01:52:01.740Z,0
2017-12-20T01:53:02.346Z,0
2017-12-20T01:54:02.953Z,0
2017-12-20T01:55:03.556Z,0
2017-12-20T01:56:04.159Z,0
2017-12-20T01:57:04.787Z,0
2017-12-20T01:58:05.392Z,0
2017-12-20T01:59:05.995Z,0
2017-12-20T02:00:06.618Z,0
2017-12-20T02:01:07.245Z,0
2017-12-20T02:02:07.871Z,0
2017-12-20T02:03:08.477Z,0
2017-12-20T02:04:09.082Z,0
2017-12-20T02:05:09.684Z,0
2017-12-20T02:06:10.288Z,0
2017-12-20T02:07:10.895Z,0
2017-12-20T02:08:11.495Z,0
2017-12-20T02:09:12.103Z,0
2017-12-20T02:10:12.726Z,0
2017-12-20T02:11:13.328Z,0
2017-12-20T02:12:13.942Z,0
2017-12-20T02:13:14.577Z,0
2017-12-20T02:14:15.202Z,0
2017-12-20T02:15:15.806Z,0
2017-12-20T02:16:16.410Z,0
2017-12-20T02:17:17.013Z,0
2017-12-20T02:18:17.618Z,0
2017-12-20T02:19:18.222Z,0
2017-12-20T02:20:18.825Z,0
2017-12-20T02:21:19.433Z,0
2017-12-20T02:22:20.037Z,0
2017-12-20T02:23:20.661Z,0
2017-12-20T02:24:21.266Z,0
2017-12-20T02:25:21.866Z,0
2017-12-20T02:26:22.470Z,0
2017-12-20T02:27:23.076Z,0
2017-12-20T02:28:23.680Z,0
2017-12-20T02:29:24.284Z,0
2017-12-20T02:30:24.888Z,0
2017-12-20T02:31:25.493Z,0
2017-12-20T02:32:26.118Z,0
2017-12-20T02:33:26.743Z,0
2017-12-20T02:34:27.347Z,0
2017-12-20T02:35:27.951Z,0
2017-12-20T02:36:28.569Z,0
2017-12-20T02:37:29.159Z,0
2017-12-20T02:38:29.783Z,0
2017-12-20T02:39:30.386Z,0
2017-12-20T02:40:30.989Z,0
2017-12-20T02:41:31.596Z,0
2017-12-20T02:42:32.199Z,0
2017-12-20T02:43:32.805Z,0
2017-12-20T02:44:33.431Z,0
2017-12-20T02:45:34.056Z,0
2017-12-20T02:46:34.660Z,0
2017-12-20T02:47:35.326Z,0
2017-12-20T02:48:35.868Z,0
2017-12-20T02:49:36.471Z,0
2017-12-20T02:50:37.077Z,0
2017-12-20T02:51:37.701Z,0
2017-12-20T02:52:38.294Z,0
2017-12-20T02:53:38.901Z,0
2017-12-20T02:54:39.497Z,0
2017-12-20T02:55:40.094Z,0
2017-12-20T02:56:40.698Z,0
2017-12-20T02:57:41.307Z,0
2017-12-20T02:58:41.894Z,0
2017-12-20T02:59:42.498Z,0
2017-12-20T03:00:43.101Z,0
2017-12-20T03:01:43.710Z,0
2017-12-20T03:02:44.324Z,0
2017-12-20T03:03:44.938Z,0
2017-12-20T03:04:45.553Z,0
2017-12-20T03:05:46.140Z,0
2017-12-20T03:06:46.741Z,0
2017-12-20T03:07:47.328Z,0
2017-12-20T03:08:47.934Z,0
2017-12-20T03:09:48.542Z,0
2017-12-20T03:10:49.143Z,0
2017-12-20T03:11:49.740Z,0
2017-12-20T03:12:50.351Z,0
2017-12-20T03:13:50.954Z,0
2017-12-20T03:14:51.547Z,0
2017-12-20T03:15:52.144Z,0
2017-12-20T03:16:52.750Z,0
2017-12-20T03:17:53.358Z,0
2017-12-20T03:18:53.965Z,0
2017-12-20T03:19:54.569Z,0
2017-12-20T03:20:55.166Z,0
2017-12-20T03:21:55.775Z,0
2017-12-20T03:22:56.376Z,0
2017-12-20T03:23:56.981Z,0
2017-12-20T03:24:57.590Z,0
2017-12-20T03:25:58.181Z,0
2017-12-20T03:26:58.791Z,0
2017-12-20T03:27:59.400Z,0
2017-12-20T03:29:00.005Z,0
2017-12-20T03:30:00.608Z,0
2017-12-20T03:31:01.206Z,0
2017-12-20T03:32:01.810Z,0
2017-12-20T03:33:02.422Z,0
2017-12-20T03:34:03.028Z,0
2017-12-20T03:35:03.638Z,0
2017-12-20T03:36:04.238Z,0
2017-12-20T03:37:04.841Z,0
2017-12-20T03:38:05.457Z,0
2017-12-20T03:39:06.046Z,0
2017-12-20T03:40:06.653Z,0
2017-12-20T03:41:07.251Z,0
2017-12-20T03:42:07.851Z,0
2017-12-20T03:43:08.458Z,0
2017-12-20T03:44:09.054Z,0
2017-12-20T03:45:09.662Z,0
2017-12-20T03:46:10.267Z,0
2017-12-20T03:47:10.873Z,0
2017-12-20T03:48:11.483Z,0
2017-12-20T03:49:12.075Z,0
2017-12-20T03:50:12.676Z,0
2017-12-20T03:51:13.269Z,0
2017-12-20T03:52:13.865Z,0
2017-12-20T03:53:14.466Z,0
2017-12-20T03:54:15.056Z,0
2017-12-20T03:55:15.656Z,0
2017-12-20T03:56:16.246Z,0
2017-12-20T03:57:16.873Z,0
2017-12-20T03:58:17.476Z,0
2017-12-20T03:59:18.076Z,0
2017-12-20T04:00:18.681Z,0
2017-12-20T04:01:19.282Z,0
2017-12-20T04:02:19.869Z,0
2017-12-20T04:03:20.473Z,0
2017-12-20T04:04:21.079Z,0
2017-12-20T04:05:21.690Z,0
2017-12-20T04:06:22.297Z,0
2017-12-20T04:07:22.899Z,0
2017-12-20T04:08:23.494Z,0
2017-12-20T04:09:24.093Z,0
2017-12-20T04:10:24.702Z,0
2017-12-20T04:11:25.306Z,0
2017-12-20T04:12:25.897Z,0
2017-12-20T04:13:26.490Z,0
2017-12-20T04:14:27.100Z,0
2017-12-20T04:15:27.696Z,0
2017-12-20T04:16:28.302Z,0
2017-12-20T04:17:28.901Z,0
2017-12-20T04:18:29.493Z,0
2017-12-20T04:19:30.090Z,0
2017-12-20T04:20:30.687Z,0
2017-12-20T04:21:31.303Z,0
2017-12-20T04:22:31.908Z,0
2017-12-20T04:23:32.507Z,0
2017-12-20T04:24:33.120Z,0
2017-12-20T04:25:33.735Z,0
2017-12-20T04:26:34.340Z,0
2017-12-20T04:27:34.949Z,0
2017-12-20T04:28:35.542Z,0
2017-12-20T04:29:36.138Z,0
2017-12-20T04:30:36.737Z,0
2017-12-20T04:31:37.327Z,0
2017-12-20T04:32:37.925Z,0
2017-12-20T04:33:38.528Z,0
2017-12-20T04:34:39.142Z,0
2017-12-20T04:35:39.738Z,0
2017-12-20T04:36:40.353Z,0
2017-12-20T04:37:40.964Z,0
2017-12-20T04:38:41.555Z,0
2017-12-20T04:39:42.145Z,0
2017-12-20T04:40:42.748Z,0
2017-12-20T04:41:43.358Z,0
2017-12-20T04:42:43.971Z,0
2017-12-20T04:43:44.573Z,0
2017-12-20T04:44:45.187Z,0
2017-12-20T04:45:45.794Z,0
2017-12-20T04:46:46.396Z,0
2017-12-20T04:47:46.993Z,0
2017-12-20T04:48:47.609Z,0
2017-12-20T04:49:48.212Z,0
2017-12-20T04:50:48.814Z,0
2017-12-20T04:51:49.416Z,0
2017-12-20T04:52:50.027Z,0
2017-12-20T04:53:50.618Z,0
2017-12-20T04:54:51.222Z,0
2017-12-20T04:55:51.842Z,0
2017-12-20T04:56:52.450Z,0
2017-12-20T04:57:53.039Z,0
2017-12-20T04:58:53.637Z,0
2017-12-20T04:59:54.252Z,0
2017-12-20T05:00:54.865Z,0
2017-12-20T05:01:55.456Z,0
2017-12-20T05:02:56.055Z,0
2017-12-20T05:03:56.661Z,0
2017-12-20T05:04:57.264Z,0
2017-12-20T05:05:57.948Z,0
2017-12-20T05:06:58.516Z,0
2017-12-20T05:07:59.130Z,0
2017-12-20T05:08:59.729Z,0
2017-12-20T05:10:00.330Z,0
2017-12-20T05:11:00.939Z,0
2017-12-20T05:12:01.545Z,0
2017-12-20T05:13:02.160Z,0
2017-12-20T05:14:02.750Z,0
2017-12-20T05:15:03.345Z,0
2017-12-20T05:16:03.949Z,0
2017-12-20T05:17:04.553Z,0
2017-12-20T05:18:05.166Z,0
2017-12-20T05:19:05.774Z,0
2017-12-20T05:20:06.442Z,0
2017-12-20T05:21:06.985Z,0
2017-12-20T05:22:07.576Z,0
2017-12-20T05:23:08.182Z,0
2017-12-20T05:24:08.787Z,0
2017-12-20T05:25:09.396Z,0
2017-12-20T05:26:10.000Z,0
2017-12-20T05:27:10.596Z,0
2017-12-20T05:28:11.192Z,0
2017-12-20T05:29:11.790Z,0
2017-12-20T05:30:12.402Z,0
2017-12-20T05:31:13.004Z,0
2017-12-20T05:32:13.607Z,0
2017-12-20T05:33:14.204Z,0
2017-12-20T05:34:14.797Z,0
2017-12-20T05:35:15.403Z,0
2017-12-20T05:36:16.017Z,0
2017-12-20T05:37:16.631Z,0
2017-12-20T05:38:17.224Z,0
2017-12-20T05:39:17.824Z,0
2017-12-20T05:40:18.422Z,0
2017-12-20T05:41:19.032Z,0
2017-12-20T05:42:19.629Z,0
2017-12-20T05:43:20.244Z,0
2017-12-20T05:44:20.834Z,0
2017-12-20T05:45:21.450Z,0
2017-12-20T05:46:22.060Z,0
2017-12-20T05:47:22.662Z,0
2017-12-20T05:48:23.249Z,0
2017-12-20T05:49:23.853Z,0
2017-12-20T05:50:24.452Z,0
2017-12-20T05:51:25.052Z,0
2017-12-20T05:52:25.644Z,0
2017-12-20T05:53:26.232Z,0
2017-12-20T05:54:26.831Z,0
2017-12-20T05:55:27.430Z,0
2017-12-20T05:56:28.038Z,0
2017-12-20T05:57:28.644Z,0
2017-12-20T05:58:29.241Z,0
2017-12-20T05:59:29.835Z,0
2017-12-20T06:00:30.429Z,0
2017-12-20T06:01:31.017Z,0
2017-12-20T06:02:31.616Z,0
2017-12-20T06:03:32.223Z,0
2017-12-20T06:04:32.821Z,0
2017-12-20T06:05:33.422Z,0
2017-12-20T06:06:34.029Z,0
2017-12-20T06:07:34.642Z,0
2017-12-20T06:08:35.304Z,0
2017-12-20T06:09:35.905Z,0
2017-12-20T06:10:36.516Z,0
2017-12-20T06:11:37.134Z,0
2017-12-20T06:12:37.736Z,0
2017-12-20T06:13:38.342Z,0
2017-12-20T06:14:38.938Z,0
2017-12-20T06:15:39.538Z,0
2017-12-20T06:16:40.137Z,0
2017-12-20T06:17:40.876Z,0
2017-12-20T06:18:41.467Z,0
2017-12-20T06:19:42.064Z,0
2017-12-20T06:20:42.668Z,0
2017-12-20T06:21:43.278Z,0
2017-12-20T06:22:43.888Z,0
2017-12-20T06:23:44.497Z,0
2017-12-20T06:24:45.091Z,0
2017-12-20T06:25:45.702Z,0
2017-12-20T06:26:46.289Z,0
2017-12-20T06:27:46.890Z,0
2017-12-20T06:28:47.490Z,0
2017-12-20T06:29:48.084Z,0
2017-12-20T06:30:48.683Z,0
2017-12-20T06:31:49.284Z,0
2017-12-20T06:32:49.911Z,0
2017-12-20T06:33:50.497Z,0
2017-12-20T06:34:51.095Z,0
2017-12-20T06:35:51.706Z,0
2017-12-20T06:36:52.302Z,0
2017-12-20T06:37:52.906Z,0
2017-12-20T06:38:53.508Z,0
2017-12-20T06:39:54.147Z,0
2017-12-20T06:40:54.739Z,0
2017-12-20T06:41:55.342Z,0
2017-12-20T06:42:55.954Z,0
2017-12-20T06:43:56.558Z,0
2017-12-20T06:44:57.189Z,0
2017-12-20T06:45:57.769Z,0
2017-12-20T06:46:58.374Z,0
2017-12-20T06:47:58.974Z,0
2017-12-20T06:48:59.588Z,0
2017-12-20T06:50:00.201Z,0
2017-12-20T06:51:00.815Z,0
2017-12-20T06:52:01.427Z,0
2017-12-20T06:53:02.035Z,0
2017-12-20T06:54:02.650Z,0
2017-12-20T06:55:03.262Z,0
2017-12-20T06:56:03.870Z,0
2017-12-20T06:57:04.469Z,0
2017-12-20T06:58:05.066Z,0
2017-12-20T06:59:05.686Z,0
2017-12-20T07:00:06.274Z,0
2017-12-20T07:01:06.893Z,4
2017-12-20T07:02:07.541Z,4
2017-12-20T07:03:08.180Z,0
2017-12-20T07:04:08.783Z,4
2017-12-20T07:05:09.386Z,4
2017-12-20T07:06:10.015Z,0
2017-12-20T07:07:10.708Z,4
2017-12-20T07:08:11.357Z,4
2017-12-20T07:09:12.046Z,8
2017-12-20T07:10:12.659Z,8
2017-12-20T07:11:13.252Z,8
2017-12-20T07:12:13.857Z,12
2017-12-20T07:13:14.487Z,12
2017-12-20T07:14:15.092Z,16
2017-12-20T07:15:15.692Z,16
2017-12-20T07:16:16.306Z,20
2017-12-20T07:17:16.926Z,24
2017-12-20T07:18:17.537Z,28
2017-12-20T07:19:18.139Z,32
2017-12-20T07:20:18.733Z,36
2017-12-20T07:21:19.341Z,40
2017-12-20T07:22:19.954Z,44
2017-12-20T07:23:20.573Z,48
2017-12-20T07:24:21.190Z,60
2017-12-20T07:25:21.797Z,64
2017-12-20T07:26:22.403Z,72
2017-12-20T07:27:23.000Z,88
2017-12-20T07:28:23.610Z,104
2017-12-20T07:29:24.592Z,120
2017-12-20T07:30:25.163Z,140
2017-12-20T07:31:25.768Z,152
2017-12-20T07:32:26.369Z,168
2017-12-20T07:33:26.983Z,184
2017-12-20T07:34:27.585Z,200
2017-12-20T07:35:28.223Z,220
2017-12-20T07:36:28.821Z,240
2017-12-20T07:37:29.400Z,256
2017-12-20T07:38:30.010Z,264
2017-12-20T07:39:30.613Z,272
2017-12-20T07:40:31.221Z,288
2017-12-20T07:41:31.841Z,300
2017-12-20T07:42:32.456Z,308
2017-12-20T07:43:33.073Z,312
2017-12-20T07:44:33.680Z,328
2017-12-20T07:45:34.296Z,348
2017-12-20T07:46:34.893Z,360
2017-12-20T07:47:35.505Z,376
2017-12-20T07:48:36.128Z,388
2017-12-20T07:49:36.722Z,404
2017-12-20T07:50:37.340Z,420
2017-12-20T07:51:37.948Z,444
2017-12-20T07:52:38.551Z,484
2017-12-20T07:53:39.169Z,512
2017-12-20T07:54:39.788Z,528
2017-12-20T07:55:40.383Z,564
2017-12-20T07:56:40.996Z,608
2017-12-20T07:57:41.592Z,672
2017-12-20T07:58:42.202Z,724
2017-12-20T07:59:42.817Z,784
2017-12-20T08:00:43.436Z,812
2017-12-20T08:01:44.053Z,860
2017-12-20T08:02:44.666Z,908
2017-12-20T08:03:45.282Z,952
2017-12-20T08:04:45.892Z,1012
2017-12-20T08:05:46.492Z,1100
2017-12-20T08:06:47.156Z,1180
2017-12-20T08:07:47.724Z,1252
2017-12-20T08:08:48.353Z,1352
2017-12-20T08:09:48.942Z,1452
2017-12-20T08:10:49.537Z,1528
2017-12-20T08:11:50.147Z,1592
2017-12-20T08:12:50.772Z,1592
2017-12-20T08:13:51.385Z,1564
2017-12-20T08:14:51.995Z,1532
2017-12-20T08:15:52.629Z,1508
2017-12-20T08:16:53.244Z,1512
2017-12-20T08:17:53.847Z,1476
2017-12-20T08:18:54.477Z,1520
2017-12-20T08:19:55.078Z,1592
2017-12-20T08:20:55.695Z,1688
2017-12-20T08:21:56.302Z,1736
2017-12-20T08:22:56.893Z,1756
2017-12-20T08:23:57.497Z,1696
2017-12-20T08:24:58.110Z,1676
2017-12-20T08:25:58.735Z,1744
2017-12-20T08:26:59.330Z,1848
2017-12-20T08:27:59.960Z,1968
2017-12-20T08:29:00.572Z,2064
2017-12-20T08:30:01.184Z,2168
2017-12-20T08:31:01.912Z,2348
2017-12-20T08:32:02.491Z,2668
2017-12-20T08:33:03.115Z,2892
2017-12-20T08:34:03.713Z,3008
2017-12-20T08:35:04.340Z,2984
2017-12-20T08:36:04.952Z,2968
2017-12-20T08:37:05.556Z,3020
2017-12-20T08:38:06.172Z,3044
2017-12-20T08:39:06.780Z,3112
2017-12-20T08:40:07.421Z,3236
2017-12-20T08:41:08.017Z,3440
2017-12-20T08:42:08.708Z,3640
2017-12-20T08:43:09.303Z,3724
2017-12-20T08:44:09.917Z,3684
2017-12-20T08:45:10.524Z,3724
2017-12-20T08:46:11.288Z,3556
2017-12-20T08:47:11.923Z,3476
2017-12-20T08:48:12.557Z,3408
2017-12-20T08:49:13.155Z,3432
2017-12-20T08:50:13.764Z,3340
2017-12-20T08:51:14.395Z,3368
2017-12-20T08:52:15.017Z,3156
2017-12-20T08:53:15.603Z,3116
2017-12-20T08:54:16.195Z,3212
2017-12-20T08:55:16.816Z,3140
2017-12-20T08:56:17.435Z,3080
2017-12-20T08:57:18.046Z,3128
2017-12-20T08:58:18.658Z,3328
2017-12-20T08:59:19.277Z,3612
2017-12-20T09:00:19.940Z,3852
2017-12-20T09:01:20.565Z,3740
2017-12-20T09:02:21.148Z,3396
2017-12-20T09:03:21.765Z,3120
2017-12-20T09:04:22.391Z,2968
2017-12-20T09:05:22.985Z,2964
2017-12-20T09:06:23.594Z,2932
2017-12-20T09:07:24.215Z,2956
2017-12-20T09:08:24.817Z,2960
2017-12-20T09:09:25.421Z,3008
2017-12-20T09:10:26.030Z,3032
2017-12-20T09:11:26.648Z,3008
2017-12-20T09:12:27.269Z,3064
2017-12-20T09:13:27.875Z,2988
2017-12-20T09:14:28.582Z,2948
2017-12-20T09:15:30.127Z,2972
2017-12-20T09:16:30.789Z,2876
2017-12-20T09:17:31.455Z,2964
2017-12-20T09:18:32.030Z,3004
2017-12-20T09:19:32.655Z,3072
2017-12-20T09:20:33.269Z,3216
2017-12-20T09:21:33.885Z,3300
2017-12-20T09:22:34.499Z,3340
2017-12-20T09:23:35.108Z,3396
2017-12-20T09:24:35.715Z,3404
2017-12-20T09:25:36.328Z,3284
2017-12-20T09:26:36.960Z,3232
2017-12-20T09:27:37.561Z,3184
2017-12-20T09:28:38.167Z,3164
2017-12-20T09:29:38.987Z,3296
2017-12-20T09:30:39.611Z,3284
2017-12-20T09:31:40.232Z,3352
2017-12-20T09:32:40.830Z,3212
2017-12-20T09:33:41.435Z,3252
2017-12-20T09:34:42.065Z,3380
2017-12-20T09:35:42.678Z,3464
2017-12-20T09:36:43.312Z,3364
2017-12-20T09:37:43.917Z,3344
2017-12-20T09:38:44.556Z,3564
2017-12-20T09:39:45.156Z,3668
2017-12-20T09:40:45.782Z,3600
2017-12-20T09:41:46.400Z,3428
2017-12-20T09:42:47.133Z,3448
2017-12-20T09:43:48.627Z,3396
2017-12-20T09:44:49.261Z,3328
2017-12-20T09:45:49.900Z,3408
2017-12-20T09:46:50.529Z,3348
2017-12-20T09:47:51.282Z,3592
2017-12-20T09:48:51.913Z,3816
2017-12-20T09:49:52.576Z,3636
2017-12-20T09:50:53.202Z,3488
2017-12-20T09:51:53.820Z,3200
2017-12-20T09:52:54.445Z,3168
2017-12-20T09:53:55.060Z,3120
2017-12-20T09:54:55.691Z,3236
2017-12-20T09:55:56.330Z,3284
2017-12-20T09:56:56.930Z,3084
2017-12-20T09:57:57.543Z,2852
2017-12-20T09:58:58.403Z,2876
2017-12-20T09:59:59.212Z,2872
2017-12-20T10:00:59.845Z,3072
2017-12-20T10:02:00.458Z,3144
2017-12-20T10:03:01.092Z,3312
2017-12-20T10:04:01.712Z,3332
2017-12-20T10:05:02.326Z,3356
2017-12-20T10:06:02.959Z,3560
2017-12-20T10:07:03.582Z,4116
2017-12-20T10:08:04.191Z,4480
2017-12-20T10:09:05.018Z,4548
2017-12-20T10:10:05.638Z,4308
2017-12-20T10:11:06.259Z,4328
2017-12-20T10:12:06.884Z,4264
2017-12-20T10:13:07.482Z,4472
2017-12-20T10:14:08.098Z,4748
2017-12-20T10:15:08.719Z,4672
2017-12-20T10:16:09.339Z,4636
2017-12-20T10:17:09.956Z,4532
2017-12-20T10:18:10.615Z,4396
2017-12-20T10:19:11.221Z,4524
2017-12-20T10:20:11.823Z,4876
2017-12-20T10:21:12.453Z,5028
2017-12-20T10:22:13.065Z,5164
2017-12-20T10:23:13.678Z,5180
2017-12-20T10:24:14.303Z,4760
2017-12-20T10:25:14.902Z,4748
2017-12-20T10:26:15.518Z,4504
2017-12-20T10:27:16.132Z,4368
2017-12-20T10:28:16.735Z,4376
2017-12-20T10:29:17.431Z,4204
2017-12-20T10:30:17.991Z,4148
2017-12-20T10:31:18.609Z,4184
2017-12-20T10:32:19.240Z,4176
2017-12-20T10:33:19.855Z,3876
2017-12-20T10:34:20.459Z,3612
2017-12-20T10:35:21.059Z,3368
2017-12-20T10:36:21.671Z,3444
2017-12-20T10:37:22.331Z,3312
2017-12-20T10:38:22.947Z,3076
2017-12-20T10:39:23.548Z,3024
2017-12-20T10:40:24.179Z,3008
2017-12-20T10:41:24.774Z,3032
2017-12-20T10:42:25.379Z,3076
2017-12-20T10:43:26.013Z,3020
2017-12-20T10:44:26.620Z,3156
2017-12-20T10:45:27.240Z,3460
2017-12-20T10:46:27.919Z,3628
2017-12-20T10:47:28.525Z,4020
2017-12-20T10:48:29.127Z,4408
2017-12-20T10:49:29.750Z,4372
2017-12-20T10:50:30.368Z,4592
2017-12-20T10:51:30.989Z,4456
2017-12-20T10:52:31.641Z,4136
2017-12-20T10:53:32.222Z,4080
2017-12-20T10:54:32.823Z,4320
2017-12-20T10:55:33.467Z,4660
2017-12-20T10:56:34.098Z,4628
2017-12-20T10:57:34.737Z,4476
2017-12-20T10:58:35.375Z,4188
2017-12-20T10:59:35.981Z,4100
2017-12-20T11:00:36.593Z,4264
2017-12-20T11:01:37.235Z,4392
2017-12-20T11:02:38.469Z,4536
2017-12-20T11:03:39.118Z,4528
2017-12-20T11:04:39.745Z,4620
2017-12-20T11:05:40.589Z,4976
2017-12-20T11:06:42.203Z,5404
2017-12-20T11:07:42.887Z,6272
2017-12-20T11:08:43.534Z,7196
2017-12-20T11:09:44.146Z,7868
2017-12-20T11:10:44.839Z,9344
2017-12-20T11:11:45.686Z,10192
2017-12-20T11:12:46.327Z,10264
2017-12-20T11:13:46.979Z,10332
2017-12-20T11:14:47.599Z,10636
2017-12-20T11:15:48.417Z,10780
2017-12-20T11:16:49.041Z,10212
2017-12-20T11:17:49.666Z,8824
2017-12-20T11:18:50.300Z,8212
2017-12-20T11:19:50.903Z,7956
2017-12-20T11:20:51.528Z,7692
2017-12-20T11:21:52.156Z,8312
2017-12-20T11:22:52.761Z,8620
2017-12-20T11:23:53.398Z,8372
2017-12-20T11:24:54.028Z,7692
2017-12-20T11:25:54.888Z,7420
2017-12-20T11:26:55.518Z,7336
2017-12-20T11:27:56.383Z,6960
2017-12-20T11:28:57.219Z,7164
2017-12-20T11:29:57.841Z,7240
2017-12-20T11:30:58.472Z,7524
2017-12-20T11:31:59.308Z,7556
2017-12-20T11:32:59.950Z,7536
2017-12-20T11:34:00.562Z,7688
2017-12-20T11:35:01.196Z,7116
2017-12-20T11:36:01.821Z,6896
2017-12-20T11:37:02.448Z,7028
2017-12-20T11:38:03.083Z,6948
2017-12-20T11:39:03.688Z,6652
2017-12-20T11:40:04.312Z,6244
2017-12-20T11:41:04.937Z,6240
2017-12-20T11:42:05.556Z,7108
2017-12-20T11:43:06.184Z,6872
2017-12-20T11:44:06.805Z,6776
2017-12-20T11:45:07.443Z,6532
2017-12-20T11:46:08.081Z,5992
2017-12-20T11:47:08.722Z,5496
2017-12-20T11:48:09.323Z,4716
2017-12-20T11:49:09.936Z,4416
2017-12-20T11:50:10.549Z,4420
2017-12-20T11:51:11.193Z,4364
2017-12-20T11:52:11.827Z,4088
2017-12-20T11:53:12.680Z,4144
2017-12-20T11:54:13.315Z,4484
2017-12-20T11:55:14.044Z,4944
2017-12-20T11:56:14.648Z,5392
2017-12-20T11:57:15.904Z,5776
2017-12-20T11:58:16.519Z,5384
2017-12-20T11:59:17.136Z,5356
2017-12-20T12:00:17.765Z,5088
2017-12-20T12:01:18.406Z,4728
2017-12-20T12:02:19.037Z,4640
2017-12-20T12:03:19.654Z,4672
2017-12-20T12:04:20.274Z,5132
2017-12-20T12:05:20.895Z,5304
2017-12-20T12:06:21.571Z,5496
2017-12-20T12:07:22.180Z,6192
2017-12-20T12:08:22.787Z,6780
2017-12-20T12:09:23.409Z,7084
2017-12-20T12:10:24.033Z,7496
2017-12-20T12:11:24.664Z,7180
2017-12-20T12:12:25.297Z,6816
2017-12-20T12:13:25.925Z,7500
2017-12-20T12:14:26.557Z,7404
2017-12-20T12:15:27.208Z,7472
2017-12-20T12:16:27.803Z,7760
2017-12-20T12:17:28.424Z,8588
2017-12-20T12:18:29.039Z,9192
2017-12-20T12:19:29.653Z,9856
2017-12-20T12:20:30.291Z,9448
2017-12-20T12:21:30.900Z,8780
2017-12-20T12:22:31.536Z,8324
2017-12-20T12:23:32.159Z,8344
2017-12-20T12:24:32.775Z,8776
2017-12-20T12:25:33.400Z,9032
2017-12-20T12:26:34.235Z,9096
2017-12-20T12:27:34.841Z,8944
2017-12-20T12:28:35.452Z,9200
2017-12-20T12:29:36.060Z,9064
2017-12-20T12:30:36.678Z,8500
2017-12-20T12:31:37.284Z,7956
2017-12-20T12:32:37.898Z,7296
2017-12-20T12:33:38.528Z,7096
2017-12-20T12:34:39.144Z,6640
2017-12-20T12:35:39.753Z,7236
2017-12-20T12:36:40.393Z,7876
2017-12-20T12:37:41.024Z,7952
2017-12-20T12:38:41.654Z,7780
2017-12-20T12:39:42.286Z,7588
2017-12-20T12:40:42.925Z,7752
2017-12-20T12:41:43.552Z,7868
2017-12-20T12:42:44.192Z,7712
2017-12-20T12:43:44.798Z,7392
2017-12-20T12:44:45.420Z,6788
2017-12-20T12:45:46.038Z,6524
2017-12-20T12:46:46.641Z,7036
2017-12-20T12:47:47.267Z,7452
2017-12-20T12:48:47.887Z,7308
2017-12-20T12:49:48.522Z,7160
2017-12-20T12:50:49.197Z,6932
2017-12-20T12:51:49.840Z,7036
2017-12-20T12:52:50.454Z,6556
2017-12-20T12:53:51.265Z,6852
2017-12-20T12:54:52.099Z,6716
2017-12-20T12:55:52.720Z,6596
2017-12-20T12:56:53.321Z,5900
2017-12-20T12:57:53.940Z,5172
2017-12-20T12:58:54.580Z,4528
2017-12-20T12:59:55.182Z,4332
2017-12-20T13:00:55.818Z,4808
2017-12-20T13:01:56.474Z,4340
2017-12-20T13:02:57.106Z,4464
2017-12-20T13:03:57.713Z,4648
2017-12-20T13:04:58.323Z,4980
2017-12-20T13:05:58.947Z,5452
2017-12-20T13:06:59.589Z,5552
2017-12-20T13:08:00.217Z,5828
2017-12-20T13:09:00.843Z,6224
2017-12-20T13:10:01.601Z,5976
2017-12-20T13:11:02.231Z,6392
2017-12-20T13:12:02.850Z,6376
2017-12-20T13:13:03.608Z,6276
2017-12-20T13:14:04.455Z,6260
2017-12-20T13:15:05.090Z,6260
2017-12-20T13:16:05.725Z,6004
2017-12-20T13:17:06.358Z,5716
2017-12-20T13:18:06.998Z,5272
2017-12-20T13:19:07.635Z,5244
2017-12-20T13:20:08.267Z,5120
2017-12-20T13:21:08.898Z,5148
2017-12-20T13:22:09.722Z,5456
2017-12-20T13:23:10.330Z,5192
2017-12-20T13:24:10.945Z,4852
2017-12-20T13:25:11.587Z,4576
2017-12-20T13:26:12.223Z,4476
2017-12-20T13:27:12.843Z,4476
2017-12-20T13:28:13.454Z,4592
2017-12-20T13:29:14.086Z,4484
2017-12-20T13:30:14.717Z,4448
2017-12-20T13:31:15.358Z,4596
2017-12-20T13:32:15.997Z,4564
2017-12-20T13:33:16.632Z,4168
2017-12-20T13:34:17.251Z,4436
2017-12-20T13:35:17.881Z,4316
2017-12-20T13:36:18.510Z,4604
2017-12-20T13:37:19.139Z,4876
2017-12-20T13:38:19.753Z,4728
2017-12-20T13:39:20.375Z,5300
2017-12-20T13:40:21.003Z,5120
2017-12-20T13:41:21.611Z,5020
2017-12-20T13:42:22.232Z,5116
2017-12-20T13:43:22.854Z,4672
2017-12-20T13:44:23.491Z,5060
2017-12-20T13:45:24.098Z,5040
2017-12-20T13:46:24.713Z,4952
2017-12-20T13:47:25.317Z,4900
2017-12-20T13:48:25.945Z,4720
2017-12-20T13:49:26.577Z,4856
2017-12-20T13:50:27.190Z,5204
2017-12-20T13:51:27.804Z,5304
2017-12-20T13:52:28.429Z,5304
2017-12-20T13:53:29.044Z,5304
2017-12-20T13:54:29.669Z,4864
2017-12-20T13:55:30.285Z,4736
2017-12-20T13:56:30.883Z,4876
2017-12-20T13:57:31.501Z,4656
2017-12-20T13:58:32.107Z,4636
2017-12-20T13:59:32.713Z,4644
2017-12-20T14:00:33.339Z,4648
2017-12-20T14:01:33.978Z,4280
2017-12-20T14:02:34.583Z,4112
2017-12-20T14:03:35.320Z,4012
2017-12-20T14:04:35.930Z,3888
2017-12-20T14:05:36.554Z,3676
2017-12-20T14:06:37.161Z,3648
2017-12-20T14:07:37.768Z,3700
2017-12-20T14:08:38.380Z,3828
2017-12-20T14:09:38.993Z,3972
2017-12-20T14:10:39.595Z,3800
2017-12-20T14:11:40.222Z,3508
2017-12-20T14:12:40.819Z,3544